createdAt,value
2019-03-10T00:01:39.952Z,12.45
2019-03-10T00:04:09.972Z,12.50
2019-03-10T00:06:39.896Z,12.83
2019-03-10T00:09:11.566Z,12.89
2019-03-10T00:11:41.682Z,12.84
2019-03-10T00:14:11.733Z,12.88
2019-03-10T00:16:41.820Z,12.82
2019-03-10T00:19:12.014Z,12.56
2019-03-10T00:21:42.339Z,12.90
2019-03-10T00:24:12.345Z,12.68
2019-03-10T00:26:42.614Z,12.72
2019-03-10T00:29:12.078Z,12.77
2019-03-10T00:31:42.505Z,12.59
2019-03-10T00:34:12.734Z,12.38
2019-03-10T00:36:43.324Z,12.38
2019-03-10T00:40:19.541Z,12.37
2019-03-10T00:44:32.329Z,12.24
2019-03-10T00:48:23.376Z,12.37
2019-03-10T00:52:06.980Z,12.29
2019-03-10T00:54:37.070Z,12.14
2019-03-10T00:57:07.693Z,12.36
2019-03-10T00:59:38.003Z,12.36
2019-03-10T01:02:08.229Z,12.31
2019-03-10T01:04:38.343Z,12.41
2019-03-10T01:07:08.777Z,12.53
2019-03-10T01:09:39.004Z,12.48
2019-03-10T01:12:09.965Z,12.22
2019-03-10T01:14:40.363Z,12.16
2019-03-10T01:17:11.320Z,12.34
2019-03-10T01:19:41.776Z,12.21
2019-03-10T01:22:11.864Z,12.24
2019-03-10T01:24:42.219Z,12.29
2019-03-10T01:27:12.321Z,12.26
2019-03-10T01:29:42.531Z,12.18
2019-03-10T01:32:53.688Z,12.24
2019-03-10T01:35:36.512Z,12.24
2019-03-10T01:38:06.833Z,11.97
2019-03-10T01:40:36.797Z,12.16
2019-03-10T01:43:06.881Z,12.25
2019-03-10T01:45:36.724Z,12.33
2019-03-10T01:48:06.588Z,12.35
2019-03-10T01:50:36.705Z,12.35
2019-03-10T01:53:06.362Z,12.35
2019-03-10T01:55:36.953Z,12.53
2019-03-10T01:58:06.907Z,12.57
2019-03-10T02:00:36.729Z,12.48
2019-03-10T02:03:07.058Z,12.80
2019-03-10T02:05:36.948Z,12.69
2019-03-10T02:08:06.840Z,12.54
2019-03-10T02:10:36.972Z,12.55
2019-03-10T02:13:07.126Z,12.55
2019-03-10T02:15:37.371Z,12.30
2019-03-10T02:18:07.529Z,12.45
2019-03-10T02:20:38.566Z,12.41
2019-03-10T02:23:07.655Z,12.41
2019-03-10T02:25:37.344Z,12.33
2019-03-10T02:28:07.495Z,12.54
2019-03-10T02:30:37.480Z,11.92
2019-03-10T02:33:07.901Z,11.72
2019-03-10T02:35:37.946Z,11.72
2019-03-10T02:38:07.877Z,12.11
2019-03-10T02:40:37.955Z,12.23
2019-03-10T02:43:07.911Z,12.31
2019-03-10T02:45:37.961Z,12.11
2019-03-10T02:48:08.187Z,12.01
2019-03-10T02:50:38.318Z,12.16
2019-03-10T02:53:08.712Z,12.26
2019-03-10T02:55:38.598Z,12.12
2019-03-10T02:58:07.634Z,12.07
2019-03-10T03:00:37.706Z,12.07
2019-03-10T03:03:07.496Z,11.84
2019-03-10T03:05:37.520Z,11.95
2019-03-10T03:08:07.680Z,11.95
2019-03-10T03:10:36.947Z,11.95
2019-03-10T03:13:06.850Z,12.09
2019-03-10T03:15:36.844Z,12.18
2019-03-10T03:18:06.804Z,12.16
2019-03-10T03:20:36.689Z,12.04
2019-03-10T03:23:06.699Z,11.78
2019-03-10T03:25:35.619Z,11.86
2019-03-10T03:28:04.743Z,11.68
2019-03-10T03:30:34.642Z,11.38
2019-03-10T03:33:03.686Z,11.31
2019-03-10T03:36:00.141Z,10.89
2019-03-10T03:38:58.098Z,10.90
2019-03-10T03:41:28.320Z,11.21
2019-03-10T03:43:58.866Z,10.73
2019-03-10T03:46:28.725Z,10.64
2019-03-10T03:48:59.366Z,10.64
2019-03-10T03:51:29.643Z,10.59
2019-03-10T03:53:58.765Z,10.55
2019-03-10T03:56:29.788Z,10.90
2019-03-10T03:59:00.892Z,10.91
2019-03-10T04:01:34.742Z,10.61
2019-03-10T04:04:04.509Z,10.61
2019-03-10T04:06:34.659Z,10.49
2019-03-10T04:09:06.018Z,10.49
2019-03-10T04:11:36.561Z,10.86
2019-03-10T04:14:06.948Z,10.75
2019-03-10T04:16:36.604Z,10.40
2019-03-10T04:19:06.278Z,10.41
2019-03-10T04:21:35.881Z,10.39
2019-03-10T04:24:05.595Z,10.39
2019-03-10T04:26:35.348Z,10.39
2019-03-10T04:29:05.559Z,10.33
2019-03-10T04:31:35.172Z,10.38
2019-03-10T04:34:08.032Z,10.38
2019-03-10T04:36:37.892Z,9.86
2019-03-10T04:39:08.773Z,10.08
2019-03-10T04:41:38.705Z,10.05
2019-03-10T04:44:08.692Z,10.16
2019-03-10T04:46:39.514Z,10.06
2019-03-10T04:49:10.571Z,10.19
2019-03-10T04:51:39.800Z,10.21
2019-03-10T04:54:09.663Z,10.06
2019-03-10T04:56:51.415Z,10.07
2019-03-10T04:59:20.851Z,10.01
2019-03-10T05:01:50.522Z,9.99
2019-03-10T05:04:20.317Z,9.68
2019-03-10T05:06:52.819Z,9.68
2019-03-10T05:09:22.540Z,9.72
2019-03-10T05:11:51.525Z,9.76
2019-03-10T05:14:21.318Z,9.79
2019-03-10T05:16:50.889Z,9.79
2019-03-10T05:19:20.813Z,9.96
2019-03-10T05:21:50.586Z,9.90
2019-03-10T05:24:19.732Z,9.67
2019-03-10T05:26:49.334Z,9.74
2019-03-10T05:29:19.320Z,9.80
2019-03-10T05:31:49.115Z,9.64
2019-03-10T05:34:19.068Z,9.65
2019-03-10T05:36:49.433Z,9.73
2019-03-10T05:39:19.548Z,9.73
2019-03-10T05:41:48.572Z,10.22
2019-03-10T05:44:17.606Z,9.78
2019-03-10T05:46:46.791Z,9.85
2019-03-10T05:49:16.502Z,9.80
2019-03-10T05:51:46.572Z,9.44
2019-03-10T05:54:16.593Z,9.47
2019-03-10T05:56:45.806Z,9.47
2019-03-10T05:59:15.502Z,9.54
2019-03-10T06:01:45.335Z,9.61
2019-03-10T06:04:15.520Z,9.53
2019-03-10T06:06:44.932Z,9.65
2019-03-10T06:09:14.838Z,9.69
2019-03-10T06:11:44.679Z,9.96
2019-03-10T06:14:13.816Z,9.69
2019-03-10T06:16:43.746Z,9.48
2019-03-10T06:19:13.755Z,9.68
2019-03-10T06:21:43.558Z,9.75
2019-03-10T06:24:13.727Z,9.47
2019-03-10T06:26:43.565Z,9.47
2019-03-10T06:29:12.712Z,9.44
2019-03-10T06:31:42.668Z,9.44
2019-03-10T06:34:12.901Z,9.36
2019-03-10T06:36:42.867Z,9.43
2019-03-10T06:39:12.733Z,9.56
2019-03-10T06:41:41.792Z,9.66
2019-03-10T06:44:12.431Z,9.44
2019-03-10T06:46:42.818Z,9.50
2019-03-10T06:49:13.314Z,9.50
2019-03-10T06:51:43.635Z,9.74
2019-03-10T06:54:13.290Z,9.74
2019-03-10T06:56:43.546Z,9.72
2019-03-10T06:59:13.699Z,9.75
2019-03-10T07:01:42.828Z,9.60
2019-03-10T07:04:13.618Z,9.69
2019-03-10T07:06:43.678Z,9.67
2019-03-10T07:09:13.900Z,9.82
2019-03-10T07:11:43.669Z,10.08
2019-03-10T07:14:13.589Z,10.03
2019-03-10T07:16:43.280Z,10.31
2019-03-10T07:19:13.677Z,10.47
2019-03-10T07:21:43.318Z,10.19
2019-03-10T07:24:13.584Z,10.62
2019-03-10T07:26:43.275Z,10.62
2019-03-10T07:29:21.583Z,10.77
2019-03-10T07:32:09.428Z,10.81
2019-03-10T07:34:54.642Z,10.85
2019-03-10T07:37:37.940Z,10.85
2019-03-10T07:40:33.894Z,10.94
2019-03-10T07:43:16.333Z,11.02
2019-03-10T07:46:10.304Z,11.23
2019-03-10T07:48:59.819Z,11.49
2019-03-10T07:51:49.127Z,11.40
2019-03-10T07:54:36.913Z,11.28
2019-03-10T07:57:25.662Z,11.25
2019-03-10T08:00:12.720Z,10.87
2019-03-10T08:03:05.185Z,11.14
2019-03-10T08:05:54.591Z,11.02
2019-03-10T08:08:52.557Z,11.22
2019-03-10T08:11:29.065Z,11.25
2019-03-10T08:14:33.765Z,11.36
2019-03-10T08:17:38.701Z,11.38
2019-03-10T08:20:26.483Z,11.70
2019-03-10T08:23:14.929Z,12.05
2019-03-10T08:26:20.028Z,12.05
2019-03-10T08:29:12.624Z,12.20
2019-03-10T08:32:02.004Z,12.24
2019-03-10T08:34:40.144Z,12.42
2019-03-10T08:37:42.600Z,12.37
2019-03-10T08:40:27.765Z,12.40
2019-03-10T08:43:08.579Z,12.40
2019-03-10T08:45:53.816Z,12.52
2019-03-10T08:48:34.097Z,12.52
2019-03-10T08:51:39.914Z,12.52
2019-03-10T08:54:15.672Z,12.35
2019-03-10T08:57:08.863Z,12.66
2019-03-10T09:00:07.545Z,12.71
2019-03-10T09:02:52.560Z,12.86
2019-03-10T09:05:41.122Z,12.66
2019-03-10T09:08:30.902Z,12.75
2019-03-10T09:11:19.468Z,12.92
2019-03-10T09:14:01.597Z,12.91
2019-03-10T09:16:48.306Z,12.91
2019-03-10T09:19:36.874Z,13.40
2019-03-10T09:22:16.868Z,13.11
2019-03-10T09:24:57.487Z,12.90
2019-03-10T09:28:02.531Z,13.23
2019-03-10T09:30:51.305Z,13.23
2019-03-10T09:33:39.544Z,13.03
2019-03-10T09:36:36.120Z,13.44
2019-03-10T09:39:27.512Z,13.40
2019-03-10T09:42:32.660Z,13.41
2019-03-10T09:45:19.037Z,13.41
2019-03-10T09:48:01.040Z,13.57
2019-03-10T09:50:44.909Z,13.39
2019-03-10T09:53:44.695Z,13.55
2019-03-10T09:56:37.272Z,13.74
2019-03-10T09:59:13.164Z,13.76
2019-03-10T10:02:02.303Z,13.61
2019-03-10T10:04:58.655Z,13.50
2019-03-10T10:07:42.025Z,13.64
2019-03-10T10:10:48.320Z,13.83
2019-03-10T10:13:44.540Z,13.79
2019-03-10T10:16:39.974Z,14.01
2019-03-10T10:19:29.058Z,13.79
2019-03-10T10:23:49.640Z,13.74
2019-03-10T10:27:24.256Z,14.38
2019-03-10T10:31:14.737Z,14.38
2019-03-10T10:40:20.059Z,15.12
2019-03-10T10:46:28.355Z,14.96
2019-03-10T10:49:16.632Z,14.78
2019-03-10T10:52:09.651Z,14.78
2019-03-10T10:55:00.011Z,14.92
2019-03-10T10:57:50.556Z,14.82
2019-03-10T11:00:31.587Z,14.60
2019-03-10T11:03:24.513Z,14.33
2019-03-10T11:06:19.703Z,14.31
2019-03-10T11:09:08.339Z,14.31
2019-03-10T11:12:11.589Z,14.50
2019-03-10T11:15:06.591Z,15.12
2019-03-10T11:17:46.128Z,15.12
2019-03-10T11:20:33.746Z,15.28
2019-03-10T11:23:22.977Z,15.55
2019-03-10T11:26:11.954Z,16.30
2019-03-10T11:28:53.587Z,16.96
2019-03-10T11:31:43.320Z,16.61
2019-03-10T11:34:23.598Z,16.38
2019-03-10T11:37:29.254Z,16.38
2019-03-10T11:40:29.822Z,16.21
2019-03-10T11:43:19.829Z,16.38
2019-03-10T11:46:48.520Z,16.08
2019-03-10T11:49:29.546Z,15.90
2019-03-10T11:52:19.745Z,17.67
2019-03-10T11:55:06.690Z,19.57
2019-03-10T11:57:56.797Z,20.30
2019-03-10T12:00:42.685Z,20.05
2019-03-10T12:03:38.203Z,21.33
2019-03-10T12:06:30.685Z,19.96
2019-03-10T12:09:18.289Z,19.96
2019-03-10T12:11:48.316Z,20.18
2019-03-10T12:14:19.107Z,19.55
2019-03-10T12:16:49.927Z,19.50
2019-03-10T12:19:20.569Z,18.35
2019-03-10T12:21:50.866Z,18.11
2019-03-10T12:24:30.392Z,19.34
2019-03-10T12:27:02.567Z,20.48
2019-03-10T12:29:32.516Z,20.54
2019-03-10T12:32:02.667Z,20.42
2019-03-10T12:34:32.792Z,20.42
2019-03-10T12:37:02.705Z,19.50
2019-03-10T12:39:32.517Z,19.56
2019-03-10T12:42:02.443Z,18.32
2019-03-10T12:44:32.661Z,17.82
2019-03-10T12:47:02.746Z,17.82
2019-03-10T12:49:32.895Z,17.68
2019-03-10T12:52:02.738Z,17.57
2019-03-10T12:54:33.781Z,18.73
2019-03-10T12:57:03.562Z,19.82
2019-03-10T12:59:33.466Z,21.35
2019-03-10T13:02:03.998Z,21.12
2019-03-10T13:04:34.130Z,21.12
2019-03-10T13:07:11.837Z,20.92
2019-03-10T13:09:44.519Z,20.35
2019-03-10T13:12:20.057Z,21.32
2019-03-10T13:15:02.090Z,21.32
2019-03-10T13:17:37.336Z,21.32
2019-03-10T13:20:10.589Z,19.39
2019-03-10T13:22:40.268Z,18.99
2019-03-10T13:25:10.339Z,19.26
2019-03-10T13:27:40.813Z,19.19
2019-03-10T13:30:13.888Z,19.21
2019-03-10T13:32:44.793Z,19.81
2019-03-10T13:35:15.811Z,20.01
2019-03-10T13:37:45.990Z,20.51
2019-03-10T13:40:16.454Z,20.50
2019-03-10T13:42:46.540Z,19.16
2019-03-10T13:45:16.139Z,19.16
2019-03-10T13:47:47.126Z,19.52
2019-03-10T13:50:17.890Z,19.65
2019-03-10T13:52:48.578Z,19.72
2019-03-10T13:55:18.035Z,19.39
2019-03-10T13:57:48.854Z,18.94
2019-03-10T14:00:22.675Z,19.52
2019-03-10T14:02:52.040Z,19.24
2019-03-10T14:05:22.454Z,18.94
2019-03-10T14:07:52.585Z,19.24
2019-03-10T14:10:21.747Z,19.37
2019-03-10T14:12:52.779Z,19.68
2019-03-10T14:15:22.910Z,19.57
2019-03-10T14:17:53.334Z,19.35
2019-03-10T14:20:23.315Z,18.96
2019-03-10T14:22:53.520Z,18.41
2019-03-10T14:25:23.746Z,17.39
2019-03-10T14:27:54.757Z,17.39
2019-03-10T14:30:24.866Z,17.29
2019-03-10T14:32:55.811Z,17.39
2019-03-10T14:35:25.825Z,17.19
2019-03-10T14:37:55.889Z,16.88
2019-03-10T14:40:26.569Z,16.85
2019-03-10T14:42:55.869Z,16.83
2019-03-10T14:45:25.706Z,16.87
2019-03-10T14:47:56.324Z,16.91
2019-03-10T14:50:27.381Z,16.91
2019-03-10T14:52:58.244Z,17.20
2019-03-10T14:55:29.588Z,17.20
2019-03-10T14:58:01.010Z,16.95
2019-03-10T15:00:31.103Z,16.86
2019-03-10T15:03:01.326Z,16.70
2019-03-10T15:05:31.650Z,17.05
2019-03-10T15:08:01.559Z,16.82
2019-03-10T15:10:31.612Z,16.70
2019-03-10T15:13:01.034Z,15.98
2019-03-10T15:15:30.988Z,16.00
2019-03-10T15:18:03.044Z,16.07
2019-03-10T15:20:34.639Z,15.93
2019-03-10T15:23:03.971Z,15.80
2019-03-10T15:25:34.135Z,15.64
2019-03-10T15:28:04.354Z,15.48
2019-03-10T15:30:34.229Z,15.49
2019-03-10T15:33:04.139Z,15.46
2019-03-10T15:35:34.357Z,15.20
2019-03-10T15:38:04.170Z,15.23
2019-03-10T15:40:34.072Z,15.07
2019-03-10T15:43:03.909Z,14.91
2019-03-10T15:45:34.929Z,14.71
2019-03-10T15:48:05.414Z,14.44
2019-03-10T15:50:35.682Z,13.62
2019-03-10T15:53:05.014Z,13.18
2019-03-10T15:55:37.682Z,13.18
2019-03-10T15:58:09.704Z,13.43
2019-03-10T16:00:40.660Z,13.63
2019-03-10T16:03:11.373Z,13.81
2019-03-10T16:05:42.698Z,13.89
2019-03-10T16:08:13.185Z,13.89
2019-03-10T16:10:45.136Z,14.29
2019-03-10T16:13:15.615Z,14.44
2019-03-10T16:15:44.965Z,14.61
2019-03-10T16:18:16.370Z,13.72
2019-03-10T16:20:47.428Z,13.72
2019-03-10T16:23:18.513Z,13.64
2019-03-10T16:25:47.884Z,13.62
2019-03-10T16:28:17.900Z,13.95
2019-03-10T16:30:48.357Z,13.83
2019-03-10T16:33:18.618Z,14.03
2019-03-10T16:35:48.754Z,14.01
2019-03-10T16:38:18.985Z,14.12
2019-03-10T16:40:49.313Z,13.90
2019-03-10T16:43:19.325Z,13.93
2019-03-10T16:45:49.529Z,13.62
2019-03-10T16:48:19.285Z,13.84
2019-03-10T16:50:49.484Z,13.47
2019-03-10T16:53:20.615Z,13.55
2019-03-10T16:56:02.091Z,13.55
2019-03-10T16:58:24.009Z,13.32
2019-03-10T17:00:53.591Z,13.61
2019-03-10T17:03:25.556Z,13.49
2019-03-10T17:05:56.068Z,13.49
2019-03-10T17:08:26.560Z,13.51
2019-03-10T17:10:56.282Z,13.36
2019-03-10T17:13:26.576Z,13.36
2019-03-10T17:15:56.717Z,13.20
2019-03-10T17:18:29.804Z,13.18
2019-03-10T17:21:00.866Z,13.11
2019-03-10T17:23:31.544Z,13.10
2019-03-10T17:26:03.127Z,12.70
2019-03-10T17:28:33.990Z,12.74
2019-03-10T17:31:05.322Z,12.69
2019-03-10T17:33:36.122Z,12.57
2019-03-10T17:36:07.031Z,12.25
2019-03-10T17:38:38.679Z,12.48
2019-03-10T17:41:09.326Z,12.15
2019-03-10T17:43:40.316Z,12.18
2019-03-10T17:46:11.473Z,11.95
2019-03-10T17:48:42.938Z,11.95
2019-03-10T17:51:14.537Z,12.05
2019-03-10T17:53:46.475Z,11.98
2019-03-10T17:56:19.963Z,11.84
2019-03-10T17:58:50.958Z,11.84
2019-03-10T18:01:22.010Z,12.11
2019-03-10T18:03:52.758Z,12.53
2019-03-10T18:06:23.319Z,12.19
2019-03-10T18:08:54.978Z,12.25
2019-03-10T18:11:27.138Z,12.25
2019-03-10T18:13:57.553Z,12.42
2019-03-10T18:16:26.692Z,12.31
2019-03-10T18:18:56.471Z,12.61
2019-03-10T18:21:27.535Z,12.65
2019-03-10T18:23:57.895Z,13.06
2019-03-10T18:26:30.034Z,13.06
2019-03-10T18:29:01.614Z,12.67
2019-03-10T18:31:32.316Z,12.46
2019-03-10T18:34:03.406Z,11.97
2019-03-10T18:36:34.383Z,11.55
2019-03-10T18:40:03.567Z,11.73
2019-03-10T18:43:24.965Z,11.79
2019-03-10T18:47:03.185Z,11.79
2019-03-10T18:51:27.038Z,11.97
2019-03-10T18:54:30.491Z,11.68
2019-03-10T18:57:54.272Z,11.73
2019-03-10T19:01:43.771Z,10.20
2019-03-10T19:05:42.658Z,10.20
2019-03-10T19:09:42.890Z,9.29
2019-03-10T19:13:08.242Z,8.21
2019-03-10T19:16:43.248Z,7.96
2019-03-10T19:23:37.647Z,7.72
2019-03-10T19:27:17.727Z,7.74
2019-03-10T19:30:52.343Z,7.74
2019-03-10T19:39:01.147Z,7.62
2019-03-10T19:41:57.188Z,7.59
2019-03-10T19:45:04.215Z,7.59
2019-03-10T19:48:50.947Z,7.63
2019-03-10T19:56:18.937Z,7.67
2019-03-10T19:59:15.537Z,7.72
2019-03-10T20:03:32.493Z,7.74
2019-03-10T20:12:00.745Z,7.89
2019-03-10T20:19:45.966Z,7.92
2019-03-10T20:23:32.023Z,7.91
2019-03-10T20:37:52.177Z,8.51
2019-03-10T20:42:30.754Z,8.37
2019-03-10T20:46:43.647Z,8.39
2019-03-10T20:50:08.747Z,8.57
2019-03-10T20:54:06.276Z,8.57
2019-03-10T20:57:28.221Z,8.12
2019-03-10T21:09:08.411Z,8.48
2019-03-10T21:13:13.673Z,8.48
2019-03-10T21:15:44.651Z,8.51
2019-03-10T21:18:13.937Z,8.32
2019-03-10T21:20:45.749Z,8.15
2019-03-10T21:23:16.725Z,8.32
2019-03-10T21:25:48.261Z,8.15
2019-03-10T21:28:18.733Z,8.17
2019-03-10T21:30:49.575Z,8.21
2019-03-10T21:33:20.018Z,8.14
2019-03-10T21:35:51.120Z,8.08
2019-03-10T21:38:22.052Z,8.10
2019-03-10T21:40:54.075Z,8.32
2019-03-10T21:43:25.699Z,8.40
2019-03-10T21:45:56.285Z,8.25
2019-03-10T21:48:26.695Z,8.39
2019-03-10T21:50:56.706Z,8.28
2019-03-10T21:53:26.744Z,8.37
2019-03-10T21:55:58.980Z,8.22
2019-03-10T21:58:29.597Z,8.26
2019-03-10T22:00:58.518Z,8.03
2019-03-10T22:03:30.351Z,8.14
2019-03-10T22:06:01.966Z,8.04
2019-03-10T22:08:33.350Z,8.04
2019-03-10T22:11:05.000Z,7.76
2019-03-10T22:13:46.108Z,7.91
2019-03-10T22:16:08.173Z,7.85
2019-03-10T22:18:38.868Z,7.98
2019-03-10T22:21:09.138Z,8.02
2019-03-10T22:23:39.946Z,7.86
2019-03-10T22:26:09.865Z,7.95
2019-03-10T22:28:40.939Z,8.06
2019-03-10T22:31:11.787Z,7.80
2019-03-10T22:33:41.633Z,8.03
2019-03-10T22:36:12.353Z,7.76
2019-03-10T22:38:42.889Z,7.83
2019-03-10T22:41:13.345Z,7.84
2019-03-10T22:43:43.572Z,7.99
2019-03-10T22:46:12.886Z,8.10
2019-03-10T22:48:43.578Z,8.24
2019-03-10T22:51:13.522Z,7.99
2019-03-10T22:53:43.161Z,8.28
2019-03-10T22:56:13.134Z,8.28
2019-03-10T22:58:43.712Z,8.29
2019-03-10T23:01:14.169Z,8.35
2019-03-10T23:03:44.627Z,8.04
2019-03-10T23:06:14.282Z,8.04
2019-03-10T23:08:44.467Z,8.08
2019-03-10T23:11:16.147Z,8.20
2019-03-10T23:13:46.219Z,8.20
2019-03-10T23:16:19.320Z,8.25
2019-03-10T23:18:49.552Z,8.02
2019-03-10T23:21:19.595Z,8.12
2019-03-10T23:23:49.981Z,8.12
2019-03-10T23:26:20.146Z,8.25
2019-03-10T23:28:51.328Z,7.82
2019-03-10T23:31:21.428Z,7.82
2019-03-10T23:33:52.432Z,7.78
2019-03-10T23:36:22.314Z,7.99
2019-03-10T23:38:52.838Z,7.99
2019-03-10T23:41:23.894Z,7.55
2019-03-10T23:43:54.471Z,7.42
2019-03-10T23:46:26.324Z,7.62
2019-03-10T23:48:57.317Z,7.62
2019-03-10T23:51:27.843Z,7.59
2019-03-10T23:53:58.485Z,7.54
2019-03-10T23:56:28.077Z,7.43
2019-03-10T23:58:57.698Z,7.39
